Time;durP1;ratioP1;P1;durP2;ratioP2;P2;SDS_P1;SDS_P2;PMS_P1;PMS_P2;Temp;Humidity;BMP_temperature;BMP_pressure;BME280_temperature;BME280_humidity;BME280_pressure;Samples;Min_cycle;Max_cycle;Signal;HPM_P1;HPM_P2
2023/07/02 00:00:01;;;;;;;8.63;3.20;;;23.10;64.90;;;;;;6244714;28;20045;-75
2023/07/02 00:03:02;;;;;;;4.13;2.85;;;23.10;64.80;;;;;;6242798;28;20029;-75
2023/07/02 00:06:03;;;;;;;7.10;3.55;;;23.10;64.70;;;;;;6259788;28;20083;-75
2023/07/02 00:09:04;;;;;;;5.22;3.50;;;23.10;64.50;;;;;;6242996;28;20056;-75
2023/07/02 00:12:05;;;;;;;6.40;3.17;;;23.10;64.70;;;;;;6241517;28;20052;-75
2023/07/02 00:15:07;;;;;;;4.93;3.30;;;23.10;64.70;;;;;;6252593;28;20499;-74
2023/07/02 00:18:08;;;;;;;4.72;2.58;;;23.00;64.80;;;;;;6283787;28;20108;-75
2023/07/02 00:21:13;;;;;;;8.63;3.00;;;23.10;64.90;;;;;;6268293;28;20036;-77
2023/07/02 00:24:15;;;;;;;5.53;2.90;;;23.10;64.80;;;;;;6267156;28;20170;-75
2023/07/02 00:27:16;;;;;;;3.38;2.40;;;23.10;64.80;;;;;;6258567;28;20040;-75
2023/07/02 00:30:17;;;;;;;5.07;2.70;;;23.10;64.70;;;;;;6258758;28;20421;-75
2023/07/02 00:33:18;;;;;;;7.55;2.58;;;23.20;65.30;;;;;;6241745;28;20141;-75
2023/07/02 00:36:19;;;;;;;5.70;2.60;;;23.20;64.40;;;;;;6242859;28;20370;-75
2023/07/02 00:39:20;;;;;;;3.65;2.17;;;23.20;64.40;;;;;;6283590;28;20043;-75
2023/07/02 00:42:23;;;;;;;3.28;2.15;;;23.10;64.70;;;;;;6283267;28;20033;-75
2023/07/02 00:45:26;;;;;;;8.45;4.05;;;23.00;65.40;;;;;;6268090;28;20043;-75
2023/07/02 00:48:27;;;;;;;7.57;3.90;;;22.70;66.20;;;;;;6266841;28;20033;-75
2023/07/02 00:51:28;;;;;;;12.52;5.03;;;22.40;66.70;;;;;;6266742;28;20147;-74
2023/07/02 00:54:30;;;;;;;10.95;4.93;;;22.20;67.20;;;;;;6267285;28;20032;-74
2023/07/02 00:57:32;;;;;;;8.68;4.45;;;22.10;67.70;;;;;;6268051;28;20465;-75
2023/07/02 01:00:33;;;;;;;12.15;4.57;;;22.00;67.90;;;;;;6271601;28;20040;-74
2023/07/02 01:03:37;;;;;;;10.27;5.30;;;21.90;68.10;;;;;;6267933;28;20098;-77
2023/07/02 01:06:41;;;;;;;9.65;5.13;;;21.80;68.50;;;;;;6266178;28;20132;-75
2023/07/02 01:09:41;;;;;;;9.75;4.82;;;21.80;68.80;;;;;;6283137;28;20033;-75
2023/07/02 01:12:44;;;;;;;10.48;5.25;;;21.70;68.80;;;;;;6246926;28;20499;-76
2023/07/02 01:15:45;;;;;;;10.48;5.18;;;21.70;68.90;;;;;;6258582;28;20107;-75
2023/07/02 01:18:46;;;;;;;9.23;5.03;;;21.70;69.00;;;;;;6257882;28;20064;-75
2023/07/02 01:21:48;;;;;;;9.02;5.03;;;21.60;69.00;;;;;;6257331;28;20323;-75
2023/07/02 01:24:50;;;;;;;8.68;4.97;;;21.70;69.00;;;;;;6257664;28;20030;-75
2023/07/02 01:27:53;;;;;;;7.47;3.47;;;21.70;68.90;;;;;;6260286;28;20029;-76
2023/07/02 01:30:54;;;;;;;11.07;3.72;;;21.80;68.90;;;;;;6268009;28;20055;-74
2023/07/02 01:33:55;;;;;;;5.93;3.40;;;21.90;69.10;;;;;;6265536;28;20032;-75
2023/07/02 01:36:55;;;;;;;5.78;2.80;;;21.90;69.10;;;;;;6265329;28;20029;-77
2023/07/02 01:39:56;;;;;;;7.65;2.53;;;22.00;69.20;;;;;;6265739;28;20735;-77
2023/07/02 01:42:57;;;;;;;4.82;3.00;;;22.10;69.20;;;;;;6265397;28;20021;-75
2023/07/02 01:45:59;;;;;;;7.47;2.65;;;22.10;69.20;;;;;;6267060;28;20417;-76
2023/07/02 01:48:59;;;;;;;3.85;2.50;;;22.20;69.30;;;;;;6265777;28;20033;-76
2023/07/02 01:52:00;;;;;;;4.85;2.88;;;22.20;69.30;;;;;;6282429;28;20033;-76
2023/07/02 01:55:02;;;;;;;7.35;3.15;;;22.30;69.20;;;;;;6282496;28;20033;-75
2023/07/02 01:58:05;;;;;;;4.45;2.75;;;22.20;69.10;;;;;;6282662;28;20140;-75
2023/07/02 02:01:06;;;;;;;4.88;2.72;;;22.30;69.10;;;;;;6249009;28;20145;-75
2023/07/02 02:04:08;;;;;;;6.55;3.40;;;22.40;69.00;;;;;;6282503;28;20031;-75
2023/07/02 02:07:09;;;;;;;5.60;3.70;;;22.40;68.90;;;;;;6262525;28;20473;-75
2023/07/02 02:10:10;;;;;;;6.28;3.30;;;22.40;68.70;;;;;;6240393;28;20041;-76
2023/07/02 02:13:11;;;;;;;7.00;3.38;;;22.40;68.40;;;;;;6256589;28;20041;-75
2023/07/02 02:16:12;;;;;;;5.40;3.47;;;22.40;68.20;;;;;;6240228;28;20076;-74
2023/07/02 02:19:14;;;;;;;8.27;4.40;;;22.40;68.20;;;;;;6241766;28;20171;-74
2023/07/02 02:22:15;;;;;;;7.03;4.03;;;22.40;68.10;;;;;;6256127;28;20060;-76
2023/07/02 02:25:16;;;;;;;11.45;4.75;;;22.40;68.00;;;;;;6240025;28;20100;-76
2023/07/02 02:28:17;;;;;;;9.52;4.78;;;22.40;68.10;;;;;;6240158;28;20592;-73
2023/07/02 02:31:18;;;;;;;9.63;4.95;;;22.40;68.00;;;;;;6256351;28;20091;-75
2023/07/02 02:34:19;;;;;;;10.82;5.20;;;22.30;67.80;;;;;;6222665;28;20033;-75
2023/07/02 02:37:22;;;;;;;9.13;4.78;;;22.30;67.60;;;;;;6249583;28;20021;-76
2023/07/02 02:40:23;;;;;;;11.05;5.32;;;22.30;67.60;;;;;;6281050;28;20473;-76
2023/07/02 02:43:24;;;;;;;9.38;5.10;;;22.30;67.50;;;;;;6264424;28;20067;-75
2023/07/02 02:46:25;;;;;;;9.68;5.10;;;22.30;67.40;;;;;;6264546;28;20037;-75
2023/07/02 02:49:27;;;;;;;9.77;5.10;;;22.20;67.50;;;;;;6264489;28;20064;-77
2023/07/02 02:52:28;;;;;;;22.98;8.75;;;22.20;67.60;;;;;;6264413;28;20043;-75
2023/07/02 02:55:29;;;;;;;17.38;8.27;;;22.20;67.80;;;;;;6281031;28;20036;-75
2023/07/02 02:58:30;;;;;;;24.83;14.00;;;22.20;67.80;;;;;;6239567;28;20037;-75
2023/07/02 03:01:31;;;;;;;37.53;16.40;;;22.20;67.80;;;;;;6255886;28;20033;-75
2023/07/02 03:04:32;;;;;;;21.52;10.90;;;22.20;68.00;;;;;;6255758;28;20030;-75
2023/07/02 03:07:33;;;;;;;12.00;6.93;;;22.20;68.10;;;;;;6256233;28;20135;-75
2023/07/02 03:10:34;;;;;;;12.13;6.40;;;22.20;68.10;;;;;;6222949;28;20033;-76
2023/07/02 03:13:35;;;;;;;15.27;6.65;;;22.20;68.10;;;;;;6222334;28;20039;-76
2023/07/02 03:16:36;;;;;;;16.77;6.90;;;22.20;68.00;;;;;;6255671;28;20125;-75
2023/07/02 03:19:37;;;;;;;14.85;6.07;;;22.20;67.70;;;;;;6255635;28;20044;-76
2023/07/02 03:22:38;;;;;;;12.57;7.07;;;22.10;67.80;;;;;;6238683;28;20034;-76
2023/07/02 03:25:39;;;;;;;11.15;5.75;;;22.10;67.90;;;;;;6240079;28;20033;-76
2023/07/02 03:28:39;;;;;;;20.40;7.43;;;22.10;68.00;;;;;;6240878;28;20033;-74
2023/07/02 03:31:40;;;;;;;10.20;5.82;;;22.10;67.90;;;;;;6240530;28;20071;-75
2023/07/02 03:34:41;;;;;;;18.95;8.13;;;22.20;67.80;;;;;;6239132;28;20563;-75
2023/07/02 03:37:43;;;;;;;22.90;10.25;;;22.10;67.50;;;;;;6267975;28;20386;-75
2023/07/02 03:40:44;;;;;;;22.98;10.63;;;22.10;67.50;;;;;;6264162;28;20116;-75
2023/07/02 03:43:45;;;;;;;15.90;7.53;;;22.10;67.50;;;;;;6263639;28;20031;-74
2023/07/02 03:46:46;;;;;;;16.15;8.27;;;22.00;67.50;;;;;;6285284;28;20426;-75
2023/07/02 03:49:47;;;;;;;15.93;7.32;;;22.00;67.50;;;;;;6287283;28;20099;-76
2023/07/02 03:52:48;;;;;;;15.32;7.68;;;22.00;67.60;;;;;;6284665;28;20446;-74
2023/07/02 03:55:49;;;;;;;15.80;7.22;;;22.00;67.80;;;;;;6267078;28;20130;-74
2023/07/02 03:58:50;;;;;;;23.17;9.52;;;22.00;67.90;;;;;;6245069;28;20363;-75
2023/07/02 04:01:51;;;;;;;12.88;7.38;;;22.00;68.00;;;;;;6243278;28;20116;-74
2023/07/02 04:04:51;;;;;;;18.42;7.50;;;22.00;68.10;;;;;;6245035;28;20057;-74
2023/07/02 04:07:53;;;;;;;19.63;7.60;;;22.00;68.10;;;;;;6243772;28;20598;-76
2023/07/02 04:10:54;;;;;;;15.95;6.85;;;21.90;68.10;;;;;;6245184;28;20540;-74
2023/07/02 04:13:55;;;;;;;15.98;7.70;;;22.00;68.40;;;;;;6244345;28;20497;-75
2023/07/02 04:16:56;;;;;;;17.25;6.82;;;22.00;68.50;;;;;;6244938;28;20040;-75
2023/07/02 04:19:59;;;;;;;21.67;9.45;;;22.00;68.40;;;;;;6226949;28;20041;-75
2023/07/02 04:23:00;;;;;;;15.90;8.25;;;22.00;68.50;;;;;;6242920;28;20049;-75
2023/07/02 04:26:02;;;;;;;13.80;6.60;;;22.10;68.50;;;;;;6243991;28;20381;-75
2023/07/02 04:29:03;;;;;;;16.23;6.78;;;22.00;68.40;;;;;;6243897;28;20130;-76
2023/07/02 04:32:04;;;;;;;16.95;7.32;;;22.00;68.50;;;;;;6241956;28;20068;-76
2023/07/02 04:35:06;;;;;;;21.05;8.23;;;22.00;68.50;;;;;;6244261;28;20034;-75
2023/07/02 04:38:08;;;;;;;14.95;7.63;;;22.10;68.40;;;;;;6259241;28;20032;-75
2023/07/02 04:41:10;;;;;;;18.08;7.85;;;22.10;68.40;;;;;;6241964;28;20116;-77
2023/07/02 04:44:11;;;;;;;13.77;6.97;;;22.10;68.30;;;;;;6241876;28;20354;-76
2023/07/02 04:47:12;;;;;;;20.08;8.00;;;22.10;68.20;;;;;;6242432;28;20037;-76
2023/07/02 04:50:13;;;;;;;16.42;6.63;;;22.10;68.10;;;;;;6243877;28;20037;-76
2023/07/02 04:53:13;;;;;;;16.02;6.88;;;22.20;68.10;;;;;;6241542;28;20033;-76
2023/07/02 04:56:14;;;;;;;13.55;6.85;;;22.20;68.00;;;;;;6241671;28;20144;-76
2023/07/02 04:59:15;;;;;;;13.27;6.45;;;22.30;67.80;;;;;;6258483;28;20033;-75
2023/07/02 05:02:17;;;;;;;15.57;6.63;;;22.40;67.60;;;;;;6241499;28;20442;-75
2023/07/02 05:05:18;;;;;;;11.88;6.25;;;22.40;67.40;;;;;;6258285;28;20077;-75
2023/07/02 05:08:18;;;;;;;12.70;5.03;;;22.50;67.30;;;;;;6241889;28;20065;-76
2023/07/02 05:11:20;;;;;;;16.63;5.18;;;22.60;67.20;;;;;;6241351;28;20458;-74
2023/07/02 05:14:22;;;;;;;8.25;4.43;;;22.60;67.20;;;;;;6243064;28;20057;-75
2023/07/02 05:17:23;;;;;;;6.43;3.72;;;22.80;67.10;;;;;;6241566;28;20095;-76
2023/07/02 05:20:24;;;;;;;7.13;4.20;;;22.80;67.00;;;;;;6242650;28;20029;-77
2023/07/02 05:23:25;;;;;;;5.93;3.78;;;22.90;66.90;;;;;;6242565;28;20098;-76
2023/07/02 05:26:26;;;;;;;10.70;4.00;;;23.00;66.90;;;;;;6242345;28;20496;-76
2023/07/02 05:29:27;;;;;;;8.63;4.00;;;23.00;66.60;;;;;;6241566;28;20025;-78
2023/07/02 05:32:28;;;;;;;6.50;3.97;;;23.10;66.50;;;;;;6257709;28;20129;-76
2023/07/02 05:35:29;;;;;;;7.22;3.22;;;23.20;66.40;;;;;;6242906;28;20391;-75
2023/07/02 05:38:30;;;;;;;8.30;3.55;;;23.20;66.30;;;;;;6258142;28;20033;-75
2023/07/02 05:41:31;;;;;;;4.57;3.08;;;23.20;66.10;;;;;;6241066;28;20040;-76
2023/07/02 05:44:32;;;;;;;8.15;3.45;;;23.20;66.00;;;;;;6241171;28;20065;-75
2023/07/02 05:47:32;;;;;;;7.95;3.42;;;23.30;66.00;;;;;;6242517;28;20025;-75
2023/07/02 05:50:33;;;;;;;7.63;3.30;;;23.30;66.00;;;;;;6240591;28;20056;-74
2023/07/02 05:53:34;;;;;;;6.65;2.92;;;23.40;65.90;;;;;;6241816;28;20025;-76
2023/07/02 05:56:35;;;;;;;5.30;2.55;;;23.40;65.70;;;;;;6241746;28;20025;-76
2023/07/02 05:59:37;;;;;;;5.53;2.70;;;23.40;65.40;;;;;;6241923;28;20033;-74
2023/07/02 06:02:38;;;;;;;4.88;2.75;;;23.50;65.50;;;;;;6240233;28;20045;-77
2023/07/02 06:05:39;;;;;;;5.45;3.00;;;23.50;65.40;;;;;;6240408;28;20125;-75
2023/07/02 06:08:40;;;;;;;6.88;3.13;;;23.50;65.20;;;;;;6239390;28;20053;-75
2023/07/02 06:11:41;;;;;;;4.30;2.72;;;23.70;65.10;;;;;;6240252;28;20112;-76
2023/07/02 06:14:42;;;;;;;4.50;2.95;;;23.70;64.80;;;;;;6241554;28;20104;-76
2023/07/02 06:17:42;;;;;;;3.22;2.40;;;23.80;64.70;;;;;;6239979;28;20493;-76
2023/07/02 06:20:44;;;;;;;4.72;2.35;;;23.80;64.50;;;;;;6223655;28;20605;-76
2023/07/02 06:23:45;;;;;;;4.28;2.55;;;24.00;64.30;;;;;;6239628;28;20041;-74
2023/07/02 06:26:46;;;;;;;7.38;2.40;;;24.00;63.80;;;;;;6239764;28;20033;-74
2023/07/02 06:29:46;;;;;;;4.38;2.25;;;24.00;63.30;;;;;;6241359;28;20056;-76
2023/07/02 06:32:47;;;;;;;4.03;2.25;;;24.00;63.20;;;;;;6240801;28;20064;-75
2023/07/02 06:35:49;;;;;;;11.88;3.10;;;24.10;62.90;;;;;;6241714;28;20398;-75
2023/07/02 06:38:50;;;;;;;4.97;2.90;;;24.10;62.80;;;;;;6258385;28;20063;-75
2023/07/02 06:41:51;;;;;;;4.05;2.75;;;24.20;62.70;;;;;;6250356;28;20037;-74
2023/07/02 06:44:52;;;;;;;3.13;2.22;;;24.30;62.40;;;;;;6257688;28;20043;-76
2023/07/02 06:47:54;;;;;;;5.15;2.70;;;24.40;62.10;;;;;;6239572;28;20057;-76
2023/07/02 06:50:56;;;;;;;7.78;2.83;;;24.50;62.20;;;;;;6241334;28;20056;-75
2023/07/02 06:53:57;;;;;;;3.42;2.70;;;24.50;61.70;;;;;;6256254;28;20040;-75
2023/07/02 06:56:58;;;;;;;8.05;3.80;;;24.60;61.40;;;;;;6256476;28;20053;-75
2023/07/02 06:59:59;;;;;;;4.43;2.80;;;24.50;61.10;;;;;;6240058;28;20174;-75
2023/07/02 07:03:01;;;;;;;8.93;3.30;;;24.50;61.30;;;;;;6256318;28;20026;-75
2023/07/02 07:06:03;;;;;;;4.47;3.20;;;24.50;61.40;;;;;;6255841;28;20037;-76
2023/07/02 07:09:04;;;;;;;7.45;3.38;;;24.50;61.30;;;;;;6239618;28;20079;-76
2023/07/02 07:12:05;;;;;;;4.30;2.92;;;24.50;61.00;;;;;;6239555;28;20033;-75
2023/07/02 07:15:07;;;;;;;22.52;5.65;;;24.60;60.60;;;;;;6240667;28;20038;-75
2023/07/02 07:18:09;;;;;;;5.75;3.10;;;24.70;60.00;;;;;;6239454;28;20029;-77
2023/07/02 07:21:10;;;;;;;4.65;2.67;;;24.70;59.80;;;;;;6242065;28;20034;-77
2023/07/02 07:24:11;;;;;;;9.30;2.88;;;24.80;59.70;;;;;;6244449;28;20036;-78
2023/07/02 07:27:12;;;;;;;7.57;3.00;;;24.90;59.60;;;;;;6260755;28;20100;-77
2023/07/02 07:30:14;;;;;;;5.68;3.13;;;25.00;59.50;;;;;;6244368;28;20041;-76
2023/07/02 07:33:15;;;;;;;9.90;3.58;;;25.00;59.20;;;;;;6244126;28;20037;-76
2023/07/02 07:36:16;;;;;;;9.82;3.50;;;25.10;59.00;;;;;;6244319;28;20103;-77
2023/07/02 07:39:17;;;;;;;5.75;3.60;;;25.30;58.80;;;;;;6260221;28;20025;-76
2023/07/02 07:42:18;;;;;;;9.93;4.80;;;25.40;58.40;;;;;;6243833;28;20700;-76
2023/07/02 07:45:19;;;;;;;13.27;7.28;;;25.60;58.20;;;;;;6260520;28;20143;-75
2023/07/02 07:48:21;;;;;;;18.63;8.25;;;25.70;57.60;;;;;;6244964;28;20577;-76
2023/07/02 07:51:22;;;;;;;19.90;9.32;;;25.80;56.90;;;;;;6259881;28;20030;-77
2023/07/02 07:54:24;;;;;;;17.67;9.23;;;25.90;56.40;;;;;;6260276;28;20037;-75
2023/07/02 07:57:25;;;;;;;15.05;8.40;;;26.00;55.60;;;;;;6259893;28;20072;-75
2023/07/02 08:00:26;;;;;;;18.33;8.52;;;26.00;55.10;;;;;;6244758;28;20034;-76
2023/07/02 08:03:27;;;;;;;23.00;8.82;;;26.00;54.80;;;;;;6245042;28;20108;-75
2023/07/02 08:06:28;;;;;;;17.90;8.07;;;25.90;54.80;;;;;;6243588;28;20041;-76
2023/07/02 08:09:29;;;;;;;20.38;8.80;;;26.00;54.70;;;;;;6243812;28;20470;-76
2023/07/02 08:12:30;;;;;;;17.10;7.85;;;25.90;54.60;;;;;;6243481;28;20033;-76
2023/07/02 08:15:30;;;;;;;19.52;8.95;;;25.90;54.40;;;;;;6245255;28;20132;-76
2023/07/02 08:18:31;;;;;;;21.25;9.02;;;25.90;54.20;;;;;;6243552;28;20037;-76
2023/07/02 08:21:32;;;;;;;18.17;8.30;;;25.80;53.90;;;;;;6243009;28;20140;-76
2023/07/02 08:24:33;;;;;;;15.93;8.05;;;25.80;53.60;;;;;;6243102;28;20127;-76
2023/07/02 08:27:35;;;;;;;16.85;8.85;;;25.90;53.40;;;;;;6243122;28;20128;-77
2023/07/02 08:30:36;;;;;;;17.52;8.27;;;26.10;53.20;;;;;;6259792;28;20037;-77
2023/07/02 08:33:38;;;;;;;15.32;8.05;;;26.20;52.80;;;;;;6257979;28;20107;-76
2023/07/02 08:36:39;;;;;;;18.92;8.18;;;26.20;52.40;;;;;;6247734;28;20029;-77
2023/07/02 08:39:40;;;;;;;18.85;8.00;;;26.30;52.30;;;;;;6243201;28;20049;-77
2023/07/02 08:42:41;;;;;;;17.88;8.52;;;26.20;52.30;;;;;;6242473;28;20044;-76
2023/07/02 08:45:42;;;;;;;20.80;9.20;;;26.20;52.20;;;;;;6243286;28;20029;-76
2023/07/02 08:48:44;;;;;;;20.35;8.85;;;26.10;52.20;;;;;;6244859;28;20040;-78
2023/07/02 08:51:46;;;;;;;20.98;9.65;;;26.00;52.50;;;;;;6259382;28;20022;-77
2023/07/02 08:54:47;;;;;;;19.63;7.68;;;25.90;52.70;;;;;;6259733;28;20474;-75
2023/07/02 08:57:52;;;;;;;16.20;8.13;;;25.80;52.70;;;;;;6259338;28;20135;-76
2023/07/02 09:01:10;;;;;;;19.73;8.85;;;25.80;52.80;;;;;;6243357;28;20033;-76
2023/07/02 09:04:16;;;;;;;17.95;8.80;;;25.80;52.80;;;;;;6243890;28;20030;-76
2023/07/02 09:07:17;;;;;;;21.52;9.32;;;25.70;52.60;;;;;;6241935;28;20025;-74
2023/07/02 09:10:31;;;;;;;19.42;9.15;;;25.70;52.70;;;;;;6243751;28;20045;-77
2023/07/02 09:13:41;;;;;;;23.42;8.93;;;25.60;52.80;;;;;;6225600;28;20033;-76
2023/07/02 09:16:42;;;;;;;19.20;8.82;;;25.60;52.90;;;;;;6241897;28;20557;-74
2023/07/02 09:19:51;;;;;;;17.35;8.60;;;25.70;52.80;;;;;;6243099;28;20788;-76
2023/07/02 09:22:55;;;;;;;19.50;9.20;;;26.10;52.60;;;;;;6241304;28;20030;-77
2023/07/02 09:25:56;;;;;;;19.08;9.60;;;26.30;52.00;;;;;;6241568;28;20033;-76
2023/07/02 09:29:03;;;;;;;21.48;8.25;;;26.60;51.30;;;;;;6259257;28;20029;-76
2023/07/02 09:32:07;;;;;;;18.73;8.93;;;26.80;50.80;;;;;;6243102;28;20044;-76
2023/07/02 09:35:08;;;;;;;20.52;9.60;;;26.80;50.50;;;;;;6248073;28;20034;-76
2023/07/02 09:38:10;;;;;;;20.55;9.30;;;26.90;50.20;;;;;;6244584;28;20030;-76
2023/07/02 09:41:12;;;;;;;19.92;9.23;;;26.90;50.20;;;;;;6241160;28;20048;-75
2023/07/02 09:44:13;;;;;;;21.88;9.02;;;26.80;50.10;;;;;;6257253;28;20033;-76
2023/07/02 09:47:18;;;;;;;18.98;8.73;;;26.80;50.20;;;;;;6242831;28;20033;-77
2023/07/02 09:50:20;;;;;;;19.33;8.35;;;26.80;50.20;;;;;;6242763;28;20045;-76
2023/07/02 09:53:21;;;;;;;18.48;8.82;;;26.80;50.20;;;;;;6240735;28;20458;-76
2023/07/02 09:56:22;;;;;;;20.23;9.40;;;26.80;50.10;;;;;;6240590;28;20037;-77
2023/07/02 09:59:24;;;;;;;23.05;8.90;;;26.90;50.00;;;;;;6240615;28;20033;-77
2023/07/02 10:02:24;;;;;;;15.25;8.63;;;26.90;49.90;;;;;;6241552;28;20327;-75
2023/07/02 10:05:27;;;;;;;15.80;8.80;;;27.00;49.70;;;;;;6241875;28;20088;-76
2023/07/02 10:08:30;;;;;;;18.88;8.93;;;27.00;49.50;;;;;;6240559;28;20025;-77
2023/07/02 10:11:35;;;;;;;18.20;8.32;;;27.10;49.40;;;;;;6241497;28;20037;-75
2023/07/02 10:14:43;;;;;;;16.73;7.72;;;27.20;49.80;;;;;;6239987;28;20041;-75
2023/07/02 10:17:58;;;;;;;20.50;8.32;;;27.30;48.90;;;;;;6242148;28;20147;-75
2023/07/02 10:20:59;;;;;;;19.65;9.05;;;27.30;48.60;;;;;;6239707;28;20164;-77
2023/07/02 10:24:20;;;;;;;20.58;8.85;;;27.40;48.40;;;;;;6256362;28;20033;-76
2023/07/02 10:27:33;;;;;;;20.13;9.18;;;27.50;48.40;;;;;;6239518;28;20402;-76
2023/07/02 10:30:38;;;;;;;19.52;8.88;;;27.50;48.20;;;;;;6241065;28;20199;-75
2023/07/02 10:33:43;;;;;;;18.65;9.15;;;27.50;48.00;;;;;;6240889;28;20105;-77
2023/07/02 10:36:44;;;;;;;14.38;8.32;;;27.50;48.00;;;;;;6245176;28;20171;-76
2023/07/02 10:39:45;;;;;;;16.45;8.55;;;27.60;47.90;;;;;;6265488;28;20334;-77
2023/07/02 10:42:47;;;;;;;20.83;9.48;;;27.70;47.80;;;;;;6265661;28;20037;-75
2023/07/02 10:45:47;;;;;;;19.15;8.80;;;27.80;47.50;;;;;;6264239;28;20159;-74
2023/07/02 10:48:55;;;;;;;16.05;8.35;;;27.80;47.90;;;;;;6274585;28;20030;-76
2023/07/02 10:51:57;;;;;;;;;;;27.90;47.20;;;;;;6241517;28;20036;-75
2023/07/02 10:54:58;;;;;;;18.58;9.30;;;27.90;46.90;;;;;;6240600;28;19955;-74
2023/07/02 10:58:09;;;;;;;17.83;9.00;;;27.90;46.60;;;;;;6240890;28;20037;-77
2023/07/02 11:01:10;;;;;;;17.98;9.40;;;27.90;46.80;;;;;;6241004;28;20450;-77
2023/07/02 11:04:11;;;;;;;18.23;7.88;;;27.80;46.80;;;;;;6239236;28;20029;-75
2023/07/02 11:07:14;;;;;;;16.35;8.38;;;27.80;46.80;;;;;;6240796;28;20022;-76
2023/07/02 11:10:19;;;;;;;18.23;9.20;;;28.00;46.50;;;;;;6240880;28;20029;-76
2023/07/02 11:13:20;;;;;;;18.17;8.45;;;28.90;45.30;;;;;;6239577;28;20487;-76
2023/07/02 11:16:29;;;;;;;17.48;8.38;;;30.00;43.80;;;;;;6239329;28;20061;-75
2023/07/02 11:19:30;;;;;;;20.50;9.00;;;31.00;42.20;;;;;;6223310;28;20045;-76
2023/07/02 11:22:35;;;;;;;17.55;9.18;;;31.70;40.60;;;;;;6239953;28;20406;-75
2023/07/02 11:25:36;;;;;;;18.23;8.25;;;32.20;39.50;;;;;;6240070;28;20041;-76
2023/07/02 11:28:47;;;;;;;13.73;8.00;;;32.50;38.60;;;;;;6257133;28;20532;-76
2023/07/02 11:31:48;;;;;;;19.42;8.80;;;32.90;37.90;;;;;;6257541;28;20452;-75
2023/07/02 11:34:53;;;;;;;13.95;7.35;;;33.20;37.30;;;;;;6241332;28;20029;-77
2023/07/02 11:37:54;;;;;;;15.75;8.10;;;33.50;36.80;;;;;;6271651;28;20033;-76
2023/07/02 11:40:55;;;;;;;13.60;7.75;;;33.80;36.30;;;;;;6266749;28;20122;-77
2023/07/02 11:43:56;;;;;;;15.98;7.22;;;33.70;36.00;;;;;;6265222;28;20029;-76
2023/07/02 11:46:57;;;;;;;14.02;6.28;;;33.60;35.80;;;;;;6258327;28;20499;-75
2023/07/02 11:50:00;;;;;;;10.98;6.45;;;33.80;35.20;;;;;;6239152;28;20091;-76
2023/07/02 11:53:02;;;;;;;11.73;5.40;;;34.10;34.60;;;;;;6240742;28;20040;-77
2023/07/02 11:56:03;;;;;;;12.35;5.78;;;34.60;33.90;;;;;;6239832;28;20033;-75
2023/07/02 11:59:04;;;;;;;11.32;6.15;;;34.70;33.40;;;;;;6239576;28;20069;-77
2023/07/02 12:02:05;;;;;;;10.65;4.95;;;34.90;32.60;;;;;;6239197;28;20033;-76
2023/07/02 12:05:07;;;;;;;11.90;5.53;;;34.90;32.30;;;;;;6239813;28;20025;-75
2023/07/02 12:08:08;;;;;;;11.63;5.32;;;34.80;32.30;;;;;;6243278;28;20060;-77
2023/07/02 12:11:10;;;;;;;10.68;5.63;;;34.80;32.30;;;;;;6260630;28;20084;-78
2023/07/02 12:14:11;;;;;;;8.15;4.63;;;34.90;32.40;;;;;;6269769;28;20033;-77
2023/07/02 12:17:12;;;;;;;9.55;5.13;;;35.00;32.30;;;;;;6263558;28;20111;-75
2023/07/02 12:20:13;;;;;;;9.07;5.38;;;35.00;32.10;;;;;;6249311;28;20359;-76
2023/07/02 12:23:14;;;;;;;11.38;5.65;;;34.90;32.30;;;;;;6248608;28;20056;-77
2023/07/02 12:26:15;;;;;;;7.72;4.53;;;34.90;32.10;;;;;;6246878;28;20045;-76
2023/07/02 12:29:16;;;;;;;7.88;4.50;;;34.90;31.90;;;;;;6259326;28;20033;-75
2023/07/02 12:32:17;;;;;;;8.02;4.70;;;35.00;31.70;;;;;;6243298;28;20102;-76
2023/07/02 12:35:18;;;;;;;10.60;5.50;;;35.10;31.50;;;;;;6259058;28;20261;-75
2023/07/02 12:38:21;;;;;;;8.32;4.45;;;35.00;31.30;;;;;;6261695;28;20047;-75
2023/07/02 12:41:22;;;;;;;10.48;4.93;;;35.00;31.50;;;;;;6261688;28;20056;-76
2023/07/02 12:44:24;;;;;;;11.00;4.60;;;34.80;31.60;;;;;;6244350;28;20125;-76
2023/07/02 12:47:25;;;;;;;8.57;4.13;;;34.20;32.30;;;;;;6242590;28;20185;-76
2023/07/02 12:50:25;;;;;;;9.43;4.50;;;33.50;33.10;;;;;;6243895;28;20045;-75
2023/07/02 12:53:27;;;;;;;8.60;4.97;;;32.90;33.90;;;;;;6258463;28;20552;-75
2023/07/02 12:56:28;;;;;;;7.93;4.30;;;32.40;34.60;;;;;;6242207;28;20048;-75
2023/07/02 12:59:29;;;;;;;8.18;4.15;;;31.90;35.30;;;;;;6243696;28;20038;-76
2023/07/02 13:02:30;;;;;;;8.52;3.75;;;31.80;35.90;;;;;;6242608;28;20497;-77
2023/07/02 13:05:31;;;;;;;5.65;3.47;;;32.40;35.40;;;;;;6242302;28;20053;-76
2023/07/02 13:08:31;;;;;;;5.82;3.50;;;33.30;33.90;;;;;;6243490;28;20017;-74
2023/07/02 13:11:32;;;;;;;5.20;3.35;;;34.00;32.50;;;;;;6242279;28;20158;-76
2023/07/02 13:14:34;;;;;;;5.00;3.08;;;34.50;31.60;;;;;;6243371;28;20025;-75
2023/07/02 13:17:35;;;;;;;4.85;2.88;;;35.40;30.00;;;;;;6243009;28;20462;-75
2023/07/02 13:20:36;;;;;;;5.47;3.72;;;36.00;29.20;;;;;;6242792;28;20044;-77
2023/07/02 13:23:37;;;;;;;4.53;2.90;;;36.40;28.50;;;;;;6275522;28;20029;-76
2023/07/02 13:26:37;;;;;;;5.82;3.20;;;36.70;28.10;;;;;;6268663;28;20032;-76
2023/07/02 13:29:38;;;;;;;5.60;3.60;;;36.30;28.20;;;;;;6267643;28;20029;-76
2023/07/02 13:32:40;;;;;;;6.80;3.30;;;36.60;28.40;;;;;;6266875;28;20040;-77
2023/07/02 13:35:41;;;;;;;6.63;3.45;;;37.30;27.80;;;;;;6268032;28;20089;-76
2023/07/02 13:38:42;;;;;;;6.38;3.30;;;38.00;27.20;;;;;;6252527;28;20053;-76
2023/07/02 13:41:43;;;;;;;4.15;3.08;;;38.80;26.50;;;;;;6242363;28;20494;-76
2023/07/02 13:44:44;;;;;;;6.45;3.47;;;39.20;26.00;;;;;;6241513;28;20730;-75
2023/07/02 13:47:45;;;;;;;8.07;3.88;;;39.60;25.50;;;;;;6241223;28;20345;-76
2023/07/02 13:50:46;;;;;;;6.43;3.20;;;40.10;25.10;;;;;;6240737;28;20056;-75
2023/07/02 13:53:47;;;;;;;5.78;3.08;;;40.50;24.40;;;;;;6240150;28;20490;-76
2023/07/02 13:56:48;;;;;;;6.00;3.20;;;40.40;24.30;;;;;;6240474;28;20124;-74
2023/07/02 13:59:48;;;;;;;4.88;3.38;;;40.50;24.20;;;;;;6239965;28;20034;-74
2023/07/02 14:02:49;;;;;;;9.68;3.20;;;40.40;24.10;;;;;;6239686;28;20467;-76
2023/07/02 14:05:50;;;;;;;4.38;3.20;;;40.60;24.10;;;;;;6241762;28;20041;-74
2023/07/02 14:08:51;;;;;;;7.07;3.10;;;40.90;23.80;;;;;;6241996;28;20033;-75
2023/07/02 14:11:52;;;;;;;5.90;3.17;;;41.00;23.70;;;;;;6257050;28;20592;-76
2023/07/02 14:14:53;;;;;;;4.78;3.05;;;41.00;23.80;;;;;;6240071;28;20121;-75
2023/07/02 14:17:54;;;;;;;5.13;3.05;;;41.10;23.70;;;;;;6241780;28;20067;-75
2023/07/02 14:20:55;;;;;;;5.85;3.45;;;41.30;23.60;;;;;;6241658;28;20030;-75
2023/07/02 14:23:58;;;;;;;4.93;3.40;;;41.70;23.30;;;;;;6239596;28;20033;-75
2023/07/02 14:26:58;;;;;;;6.90;3.50;;;42.00;23.10;;;;;;6241381;28;20509;-76
2023/07/02 14:30:00;;;;;;;5.97;3.58;;;42.10;22.90;;;;;;6222810;28;20041;-75
2023/07/02 14:33:01;;;;;;;5.80;3.28;;;42.30;22.70;;;;;;6239785;28;20029;-75
2023/07/02 14:36:04;;;;;;;5.32;3.38;;;42.40;22.50;;;;;;6256415;28;20132;-75
2023/07/02 14:39:05;;;;;;;4.30;2.90;;;42.50;22.30;;;;;;6246526;28;20171;-75
2023/07/02 14:42:07;;;;;;;6.28;3.42;;;42.30;22.30;;;;;;6264758;28;20471;-76
2023/07/02 14:45:09;;;;;;;5.43;3.30;;;42.20;22.50;;;;;;6266383;28;20489;-75
2023/07/02 14:48:09;;;;;;;6.95;3.33;;;42.40;22.20;;;;;;6266769;28;20063;-74
2023/07/02 14:51:10;;;;;;;4.70;3.17;;;42.20;22.10;;;;;;6264467;28;20345;-75
2023/07/02 14:54:12;;;;;;;7.93;3.45;;;42.00;22.30;;;;;;6266198;28;20028;-75
2023/07/02 14:57:13;;;;;;;4.25;2.97;;;41.90;22.40;;;;;;6263787;28;20040;-75
2023/07/02 15:00:14;;;;;;;4.25;2.75;;;42.00;22.50;;;;;;6265935;28;20504;-76
2023/07/02 15:03:17;;;;;;;6.00;3.03;;;42.00;22.30;;;;;;6266075;28;20045;-75
2023/07/02 15:06:18;;;;;;;4.32;3.08;;;42.10;22.30;;;;;;6264743;28;20029;-76
2023/07/02 15:09:19;;;;;;;4.10;2.63;;;42.20;22.30;;;;;;6264612;28;20045;-74
2023/07/02 15:12:20;;;;;;;4.65;3.30;;;42.50;21.90;;;;;;6249067;28;20537;-75
2023/07/02 15:15:22;;;;;;;5.47;3.15;;;42.30;22.10;;;;;;6240686;28;20033;-76
2023/07/02 15:18:23;;;;;;;7.13;3.00;;;42.10;21.90;;;;;;6256323;28;20057;-76
2023/07/02 15:21:24;;;;;;;5.25;3.00;;;42.10;22.10;;;;;;6239527;28;20151;-76
2023/07/02 15:24:25;;;;;;;5.78;2.85;;;42.00;22.20;;;;;;6256407;28;20033;-76
2023/07/02 15:27:26;;;;;;;4.43;3.25;;;42.00;22.20;;;;;;6256003;28;20193;-75
2023/07/02 15:30:27;;;;;;;4.38;2.65;;;42.00;22.30;;;;;;6239399;28;20037;-76
2023/07/02 15:33:28;;;;;;;4.25;2.70;;;41.90;22.50;;;;;;6241435;28;20037;-74
2023/07/02 15:36:35;;;;;;;4.63;3.13;;;41.80;22.40;;;;;;6241695;28;20033;-76
2023/07/02 15:39:36;;;;;;;4.40;2.77;;;41.60;22.40;;;;;;6247375;28;20119;-75